Terminal Aerodrome Forecast
Issued by NWS Topeka, KS

Home | Current Version | Previous Version | Text Only | Print | Product List | Glossary On
Versions: 1 2 3 4 5 6 7 8 9 10 11 12 13 14 15 16
000
FTUS43 KTOP 301700
TAFTOP
TAF
KTOP 301736Z 3018/3118 16005KT P6SM OVC180
     FM310700 17004KT P6SM -SHRA OVC040
     FM311100 16005KT 5SM -RA SCT015 OVC027=

USA.gov is the U.S. government's official web portal to all federal, state and local government web resources and services.